sensor_id;sensor_type;location;lat;lon;timestamp;P1;durP1;ratioP1;P2;durP2;ratioP2
33696;SDS011;20031;43.416;23.232;2023-07-16T00:00:57;12.55;;;5.95;;
33696;SDS011;20031;43.416;23.232;2023-07-16T00:03:23;10.45;;;5.75;;
33696;SDS011;20031;43.416;23.232;2023-07-16T00:05:51;9.40;;;6.38;;
33696;SDS011;20031;43.416;23.232;2023-07-16T00:08:17;15.00;;;6.15;;
33696;SDS011;20031;43.416;23.232;2023-07-16T00:10:42;13.45;;;6.05;;
33696;SDS011;20031;43.416;23.232;2023-07-16T00:13:08;14.32;;;5.68;;
33696;SDS011;20031;43.416;23.232;2023-07-16T00:15:33;9.55;;;5.55;;
33696;SDS011;20031;43.416;23.232;2023-07-16T00:17:59;9.57;;;5.60;;
33696;SDS011;20031;43.416;23.232;2023-07-16T00:20:24;9.88;;;5.45;;
33696;SDS011;20031;43.416;23.232;2023-07-16T00:22:50;13.45;;;5.32;;
33696;SDS011;20031;43.416;23.232;2023-07-16T00:25:15;13.70;;;5.47;;
33696;SDS011;20031;43.416;23.232;2023-07-16T00:27:41;8.93;;;5.75;;
33696;SDS011;20031;43.416;23.232;2023-07-16T00:30:07;12.88;;;6.18;;
33696;SDS011;20031;43.416;23.232;2023-07-16T00:32:33;14.35;;;5.80;;
33696;SDS011;20031;43.416;23.232;2023-07-16T00:34:58;10.07;;;6.30;;
33696;SDS011;20031;43.416;23.232;2023-07-16T00:37:24;16.30;;;6.40;;
33696;SDS011;20031;43.416;23.232;2023-07-16T00:39:49;11.32;;;5.93;;
33696;SDS011;20031;43.416;23.232;2023-07-16T00:42:16;12.73;;;6.22;;
33696;SDS011;20031;43.416;23.232;2023-07-16T00:44:41;12.13;;;5.95;;
33696;SDS011;20031;43.416;23.232;2023-07-16T00:47:07;9.23;;;5.70;;
33696;SDS011;20031;43.416;23.232;2023-07-16T00:49:33;13.60;;;5.88;;
33696;SDS011;20031;43.416;23.232;2023-07-16T00:51:59;15.15;;;5.95;;
33696;SDS011;20031;43.416;23.232;2023-07-16T00:54:26;13.77;;;6.18;;
33696;SDS011;20031;43.416;23.232;2023-07-16T00:56:52;9.68;;;5.72;;
33696;SDS011;20031;43.416;23.232;2023-07-16T00:59:18;13.18;;;6.47;;
33696;SDS011;20031;43.416;23.232;2023-07-16T01:01:43;14.40;;;6.20;;
33696;SDS011;20031;43.416;23.232;2023-07-16T01:04:09;9.40;;;6.10;;
33696;SDS011;20031;43.416;23.232;2023-07-16T01:06:35;9.88;;;5.82;;
33696;SDS011;20031;43.416;23.232;2023-07-16T01:09:07;10.15;;;5.65;;
33696;SDS011;20031;43.416;23.232;2023-07-16T01:11:36;13.57;;;5.57;;
33696;SDS011;20031;43.416;23.232;2023-07-16T01:14:04;15.40;;;5.72;;
33696;SDS011;20031;43.416;23.232;2023-07-16T01:16:31;15.50;;;6.10;;
33696;SDS011;20031;43.416;23.232;2023-07-16T01:18:57;12.43;;;5.50;;
33696;SDS011;20031;43.416;23.232;2023-07-16T01:21:23;10.38;;;5.38;;
33696;SDS011;20031;43.416;23.232;2023-07-16T01:31:46;13.88;;;5.55;;
33696;SDS011;20031;43.416;23.232;2023-07-16T01:34:14;13.55;;;5.72;;
33696;SDS011;20031;43.416;23.232;2023-07-16T01:36:40;17.10;;;5.45;;
33696;SDS011;20031;43.416;23.232;2023-07-16T01:39:07;9.93;;;5.43;;
33696;SDS011;20031;43.416;23.232;2023-07-16T01:41:32;12.40;;;5.50;;
33696;SDS011;20031;43.416;23.232;2023-07-16T01:43:58;10.48;;;5.20;;
33696;SDS011;20031;43.416;23.232;2023-07-16T01:46:24;12.27;;;5.35;;
33696;SDS011;20031;43.416;23.232;2023-07-16T01:48:50;9.10;;;5.43;;
33696;SDS011;20031;43.416;23.232;2023-07-16T01:51:15;13.13;;;5.43;;
33696;SDS011;20031;43.416;23.232;2023-07-16T01:53:41;8.80;;;5.30;;
33696;SDS011;20031;43.416;23.232;2023-07-16T01:56:06;10.80;;;5.50;;
33696;SDS011;20031;43.416;23.232;2023-07-16T01:58:32;12.20;;;5.45;;
33696;SDS011;20031;43.416;23.232;2023-07-16T02:00:57;9.63;;;5.03;;
33696;SDS011;20031;43.416;23.232;2023-07-16T02:03:23;15.55;;;5.63;;
33696;SDS011;20031;43.416;23.232;2023-07-16T02:05:49;9.48;;;5.20;;
33696;SDS011;20031;43.416;23.232;2023-07-16T02:08:14;7.43;;;5.22;;
33696;SDS011;20031;43.416;23.232;2023-07-16T02:10:42;11.13;;;5.72;;
33696;SDS011;20031;43.416;23.232;2023-07-16T02:13:07;10.75;;;5.53;;
33696;SDS011;20031;43.416;23.232;2023-07-16T02:15:32;9.50;;;5.40;;
33696;SDS011;20031;43.416;23.232;2023-07-16T02:17:58;10.52;;;5.97;;
33696;SDS011;20031;43.416;23.232;2023-07-16T02:20:23;10.00;;;5.80;;
33696;SDS011;20031;43.416;23.232;2023-07-16T02:22:49;8.82;;;5.65;;
33696;SDS011;20031;43.416;23.232;2023-07-16T02:25:14;12.68;;;6.07;;
33696;SDS011;20031;43.416;23.232;2023-07-16T02:27:40;15.27;;;6.07;;
33696;SDS011;20031;43.416;23.232;2023-07-16T02:30:05;14.63;;;6.43;;
33696;SDS011;20031;43.416;23.232;2023-07-16T02:32:32;13.88;;;5.68;;
33696;SDS011;20031;43.416;23.232;2023-07-16T02:34:58;17.10;;;6.30;;
33696;SDS011;20031;43.416;23.232;2023-07-16T02:37:23;15.82;;;5.72;;
33696;SDS011;20031;43.416;23.232;2023-07-16T02:39:49;11.43;;;6.30;;
33696;SDS011;20031;43.416;23.232;2023-07-16T02:42:14;10.65;;;6.07;;
33696;SDS011;20031;43.416;23.232;2023-07-16T02:44:40;11.90;;;6.07;;
33696;SDS011;20031;43.416;23.232;2023-07-16T02:47:10;15.95;;;6.90;;
33696;SDS011;20031;43.416;23.232;2023-07-16T02:49:36;20.67;;;13.10;;
33696;SDS011;20031;43.416;23.232;2023-07-16T02:52:01;13.32;;;9.43;;
33696;SDS011;20031;43.416;23.232;2023-07-16T02:54:27;9.07;;;7.28;;
33696;SDS011;20031;43.416;23.232;2023-07-16T02:56:52;10.35;;;5.97;;
33696;SDS011;20031;43.416;23.232;2023-07-16T02:59:18;11.07;;;6.10;;
33696;SDS011;20031;43.416;23.232;2023-07-16T03:01:43;12.90;;;5.95;;
33696;SDS011;20031;43.416;23.232;2023-07-16T03:04:09;11.35;;;5.95;;
33696;SDS011;20031;43.416;23.232;2023-07-16T03:06:34;12.50;;;5.50;;
33696;SDS011;20031;43.416;23.232;2023-07-16T03:08:59;9.38;;;5.65;;
33696;SDS011;20031;43.416;23.232;2023-07-16T03:11:25;8.75;;;5.50;;
33696;SDS011;20031;43.416;23.232;2023-07-16T03:13:50;14.02;;;5.80;;
33696;SDS011;20031;43.416;23.232;2023-07-16T03:16:16;14.40;;;5.70;;
33696;SDS011;20031;43.416;23.232;2023-07-16T03:18:41;12.50;;;5.97;;
33696;SDS011;20031;43.416;23.232;2023-07-16T03:21:07;10.10;;;5.85;;
33696;SDS011;20031;43.416;23.232;2023-07-16T03:23:32;11.85;;;6.25;;
33696;SDS011;20031;43.416;23.232;2023-07-16T03:25:58;12.13;;;6.00;;
33696;SDS011;20031;43.416;23.232;2023-07-16T03:28:23;9.18;;;5.72;;
33696;SDS011;20031;43.416;23.232;2023-07-16T03:30:49;9.52;;;5.97;;
33696;SDS011;20031;43.416;23.232;2023-07-16T03:33:15;16.20;;;6.00;;
33696;SDS011;20031;43.416;23.232;2023-07-16T03:35:44;11.65;;;5.47;;
33696;SDS011;20031;43.416;23.232;2023-07-16T03:38:11;9.20;;;5.63;;
33696;SDS011;20031;43.416;23.232;2023-07-16T03:40:37;11.45;;;5.90;;
33696;SDS011;20031;43.416;23.232;2023-07-16T03:43:03;13.73;;;6.45;;
33696;SDS011;20031;43.416;23.232;2023-07-16T03:45:28;9.75;;;6.07;;
33696;SDS011;20031;43.416;23.232;2023-07-16T03:47:54;14.48;;;6.28;;
33696;SDS011;20031;43.416;23.232;2023-07-16T03:50:19;11.13;;;6.18;;
33696;SDS011;20031;43.416;23.232;2023-07-16T03:52:45;10.02;;;5.88;;
33696;SDS011;20031;43.416;23.232;2023-07-16T03:55:10;12.20;;;6.28;;
33696;SDS011;20031;43.416;23.232;2023-07-16T03:57:36;15.30;;;7.25;;
33696;SDS011;20031;43.416;23.232;2023-07-16T04:00:02;13.10;;;6.57;;
33696;SDS011;20031;43.416;23.232;2023-07-16T04:02:29;16.83;;;6.85;;
33696;SDS011;20031;43.416;23.232;2023-07-16T04:04:55;12.68;;;6.90;;
33696;SDS011;20031;43.416;23.232;2023-07-16T04:07:20;20.48;;;7.40;;
33696;SDS011;20031;43.416;23.232;2023-07-16T04:09:45;13.20;;;7.60;;
33696;SDS011;20031;43.416;23.232;2023-07-16T04:12:11;20.25;;;9.02;;
33696;SDS011;20031;43.416;23.232;2023-07-16T04:14:37;13.68;;;7.10;;
33696;SDS011;20031;43.416;23.232;2023-07-16T04:17:02;15.88;;;7.15;;
33696;SDS011;20031;43.416;23.232;2023-07-16T04:19:28;18.83;;;7.30;;
33696;SDS011;20031;43.416;23.232;2023-07-16T04:21:53;12.40;;;6.90;;
33696;SDS011;20031;43.416;23.232;2023-07-16T04:24:19;12.25;;;6.40;;
33696;SDS011;20031;43.416;23.232;2023-07-16T04:26:44;11.40;;;6.57;;
33696;SDS011;20031;43.416;23.232;2023-07-16T04:29:10;13.20;;;6.93;;
33696;SDS011;20031;43.416;23.232;2023-07-16T04:31:35;15.30;;;6.90;;
33696;SDS011;20031;43.416;23.232;2023-07-16T04:34:01;11.95;;;6.82;;
33696;SDS011;20031;43.416;23.232;2023-07-16T04:36:26;10.95;;;6.97;;
33696;SDS011;20031;43.416;23.232;2023-07-16T04:38:51;15.05;;;6.65;;
33696;SDS011;20031;43.416;23.232;2023-07-16T04:41:17;11.07;;;7.15;;
33696;SDS011;20031;43.416;23.232;2023-07-16T04:43:42;15.88;;;7.57;;
33696;SDS011;20031;43.416;23.232;2023-07-16T04:46:08;11.88;;;6.95;;
33696;SDS011;20031;43.416;23.232;2023-07-16T04:48:33;13.50;;;7.22;;
33696;SDS011;20031;43.416;23.232;2023-07-16T04:50:59;16.35;;;7.80;;
33696;SDS011;20031;43.416;23.232;2023-07-16T04:53:24;21.02;;;7.43;;
33696;SDS011;20031;43.416;23.232;2023-07-16T04:55:50;22.38;;;9.60;;
33696;SDS011;20031;43.416;23.232;2023-07-16T04:58:16;26.00;;;10.48;;
33696;SDS011;20031;43.416;23.232;2023-07-16T05:00:41;18.23;;;9.13;;
33696;SDS011;20031;43.416;23.232;2023-07-16T05:03:07;24.98;;;11.43;;
33696;SDS011;20031;43.416;23.232;2023-07-16T05:05:32;16.77;;;8.15;;
33696;SDS011;20031;43.416;23.232;2023-07-16T05:07:58;20.33;;;8.00;;
33696;SDS011;20031;43.416;23.232;2023-07-16T05:10:24;12.68;;;7.25;;
33696;SDS011;20031;43.416;23.232;2023-07-16T05:12:49;17.27;;;7.57;;
33696;SDS011;20031;43.416;23.232;2023-07-16T05:15:15;13.43;;;6.85;;
33696;SDS011;20031;43.416;23.232;2023-07-16T05:17:41;15.18;;;6.18;;
33696;SDS011;20031;43.416;23.232;2023-07-16T05:20:07;18.75;;;5.97;;
33696;SDS011;20031;43.416;23.232;2023-07-16T05:22:34;15.38;;;5.43;;
33696;SDS011;20031;43.416;23.232;2023-07-16T05:25:00;12.43;;;5.80;;
33696;SDS011;20031;43.416;23.232;2023-07-16T05:27:25;17.33;;;6.40;;
33696;SDS011;20031;43.416;23.232;2023-07-16T05:29:51;10.18;;;5.82;;
33696;SDS011;20031;43.416;23.232;2023-07-16T05:32:16;14.13;;;5.85;;
33696;SDS011;20031;43.416;23.232;2023-07-16T05:34:42;12.35;;;5.97;;
33696;SDS011;20031;43.416;23.232;2023-07-16T05:37:07;15.05;;;5.78;;
33696;SDS011;20031;43.416;23.232;2023-07-16T05:39:32;14.73;;;6.20;;
33696;SDS011;20031;43.416;23.232;2023-07-16T05:41:58;13.52;;;5.45;;
33696;SDS011;20031;43.416;23.232;2023-07-16T05:44:23;13.55;;;5.80;;
33696;SDS011;20031;43.416;23.232;2023-07-16T05:46:49;20.25;;;6.28;;
33696;SDS011;20031;43.416;23.232;2023-07-16T05:49:14;10.93;;;5.95;;
33696;SDS011;20031;43.416;23.232;2023-07-16T05:51:39;12.65;;;5.78;;
33696;SDS011;20031;43.416;23.232;2023-07-16T05:54:05;16.77;;;5.80;;
33696;SDS011;20031;43.416;23.232;2023-07-16T05:56:31;14.27;;;6.00;;
33696;SDS011;20031;43.416;23.232;2023-07-16T05:58:57;11.20;;;5.95;;
33696;SDS011;20031;43.416;23.232;2023-07-16T06:01:22;17.15;;;6.38;;
33696;SDS011;20031;43.416;23.232;2023-07-16T06:03:48;12.30;;;5.88;;
33696;SDS011;20031;43.416;23.232;2023-07-16T06:06:13;17.65;;;6.30;;
33696;SDS011;20031;43.416;23.232;2023-07-16T06:08:39;13.85;;;5.50;;
33696;SDS011;20031;43.416;23.232;2023-07-16T06:11:04;13.80;;;6.15;;
33696;SDS011;20031;43.416;23.232;2023-07-16T06:13:30;14.43;;;5.93;;
33696;SDS011;20031;43.416;23.232;2023-07-16T06:15:56;17.08;;;5.70;;
33696;SDS011;20031;43.416;23.232;2023-07-16T06:18:21;14.32;;;6.18;;
33696;SDS011;20031;43.416;23.232;2023-07-16T06:20:47;15.70;;;6.63;;
33696;SDS011;20031;43.416;23.232;2023-07-16T06:23:12;19.27;;;6.35;;
33696;SDS011;20031;43.416;23.232;2023-07-16T06:25:38;19.23;;;6.63;;
33696;SDS011;20031;43.416;23.232;2023-07-16T06:28:09;15.15;;;6.18;;
33696;SDS011;20031;43.416;23.232;2023-07-16T06:30:35;20.95;;;6.65;;
33696;SDS011;20031;43.416;23.232;2023-07-16T06:33:00;16.23;;;6.07;;
33696;SDS011;20031;43.416;23.232;2023-07-16T06:35:26;15.77;;;6.38;;
33696;SDS011;20031;43.416;23.232;2023-07-16T06:37:51;17.23;;;6.15;;
33696;SDS011;20031;43.416;23.232;2023-07-16T06:40:17;12.93;;;5.90;;
33696;SDS011;20031;43.416;23.232;2023-07-16T06:42:42;24.05;;;6.15;;
33696;SDS011;20031;43.416;23.232;2023-07-16T06:45:08;20.10;;;6.15;;
33696;SDS011;20031;43.416;23.232;2023-07-16T06:47:33;18.17;;;6.25;;
33696;SDS011;20031;43.416;23.232;2023-07-16T06:49:59;10.43;;;5.95;;
33696;SDS011;20031;43.416;23.232;2023-07-16T06:52:24;18.10;;;6.00;;
33696;SDS011;20031;43.416;23.232;2023-07-16T06:54:55;15.90;;;6.05;;
33696;SDS011;20031;43.416;23.232;2023-07-16T06:57:22;13.48;;;5.85;;
33696;SDS011;20031;43.416;23.232;2023-07-16T06:59:48;16.17;;;6.50;;
33696;SDS011;20031;43.416;23.232;2023-07-16T07:02:15;17.42;;;5.90;;
33696;SDS011;20031;43.416;23.232;2023-07-16T07:04:41;14.05;;;5.60;;
33696;SDS011;20031;43.416;23.232;2023-07-16T07:07:06;15.20;;;5.97;;
33696;SDS011;20031;43.416;23.232;2023-07-16T07:09:32;17.55;;;6.10;;
33696;SDS011;20031;43.416;23.232;2023-07-16T07:11:57;17.98;;;5.50;;
33696;SDS011;20031;43.416;23.232;2023-07-16T07:14:23;15.32;;;5.70;;
33696;SDS011;20031;43.416;23.232;2023-07-16T07:16:48;22.75;;;6.05;;
33696;SDS011;20031;43.416;23.232;2023-07-16T07:19:14;11.02;;;5.90;;
33696;SDS011;20031;43.416;23.232;2023-07-16T07:21:39;20.88;;;5.63;;
33696;SDS011;20031;43.416;23.232;2023-07-16T07:24:05;13.07;;;5.57;;
33696;SDS011;20031;43.416;23.232;2023-07-16T07:26:30;13.60;;;5.57;;
33696;SDS011;20031;43.416;23.232;2023-07-16T07:28:56;15.85;;;5.78;;
33696;SDS011;20031;43.416;23.232;2023-07-16T07:31:21;17.00;;;5.80;;
33696;SDS011;20031;43.416;23.232;2023-07-16T07:33:46;14.85;;;5.57;;
33696;SDS011;20031;43.416;23.232;2023-07-16T07:36:12;13.70;;;5.50;;
33696;SDS011;20031;43.416;23.232;2023-07-16T07:38:37;14.10;;;5.55;;
33696;SDS011;20031;43.416;23.232;2023-07-16T07:41:04;15.77;;;5.40;;
33696;SDS011;20031;43.416;23.232;2023-07-16T07:43:30;19.50;;;5.70;;
33696;SDS011;20031;43.416;23.232;2023-07-16T07:45:56;11.10;;;5.32;;
33696;SDS011;20031;43.416;23.232;2023-07-16T07:48:21;10.30;;;5.30;;
33696;SDS011;20031;43.416;23.232;2023-07-16T07:50:47;14.05;;;5.05;;
33696;SDS011;20031;43.416;23.232;2023-07-16T07:53:12;14.00;;;5.47;;
33696;SDS011;20031;43.416;23.232;2023-07-16T07:55:40;15.23;;;5.20;;
33696;SDS011;20031;43.416;23.232;2023-07-16T07:58:07;14.13;;;4.88;;
33696;SDS011;20031;43.416;23.232;2023-07-16T08:00:33;15.55;;;5.35;;
33696;SDS011;20031;43.416;23.232;2023-07-16T08:02:58;14.65;;;5.43;;
33696;SDS011;20031;43.416;23.232;2023-07-16T08:05:24;14.70;;;5.05;;
33696;SDS011;20031;43.416;23.232;2023-07-16T08:07:49;12.75;;;5.68;;
33696;SDS011;20031;43.416;23.232;2023-07-16T08:10:16;11.75;;;5.30;;
33696;SDS011;20031;43.416;23.232;2023-07-16T08:12:42;16.70;;;5.13;;
33696;SDS011;20031;43.416;23.232;2023-07-16T08:15:07;15.45;;;5.35;;
33696;SDS011;20031;43.416;23.232;2023-07-16T08:17:38;18.67;;;5.55;;
33696;SDS011;20031;43.416;23.232;2023-07-16T08:20:05;14.70;;;5.70;;
33696;SDS011;20031;43.416;23.232;2023-07-16T08:22:32;10.77;;;5.32;;
33696;SDS011;20031;43.416;23.232;2023-07-16T08:24:57;16.77;;;5.70;;
33696;SDS011;20031;43.416;23.232;2023-07-16T08:27:23;12.15;;;5.85;;
33696;SDS011;20031;43.416;23.232;2023-07-16T08:29:48;8.25;;;5.43;;
33696;SDS011;20031;43.416;23.232;2023-07-16T08:32:13;15.27;;;5.50;;
33696;SDS011;20031;43.416;23.232;2023-07-16T08:34:39;13.55;;;5.32;;
33696;SDS011;20031;43.416;23.232;2023-07-16T08:37:04;12.70;;;5.40;;
33696;SDS011;20031;43.416;23.232;2023-07-16T08:39:31;19.98;;;6.00;;
33696;SDS011;20031;43.416;23.232;2023-07-16T08:41:56;12.68;;;5.90;;
33696;SDS011;20031;43.416;23.232;2023-07-16T08:44:22;16.70;;;5.63;;
33696;SDS011;20031;43.416;23.232;2023-07-16T08:46:48;14.75;;;5.55;;
33696;SDS011;20031;43.416;23.232;2023-07-16T08:49:14;13.27;;;5.75;;
33696;SDS011;20031;43.416;23.232;2023-07-16T08:51:43;12.02;;;5.43;;
33696;SDS011;20031;43.416;23.232;2023-07-16T08:54:11;12.23;;;5.82;;
33696;SDS011;20031;43.416;23.232;2023-07-16T08:56:36;13.93;;;5.75;;
33696;SDS011;20031;43.416;23.232;2023-07-16T08:59:02;10.68;;;5.68;;
33696;SDS011;20031;43.416;23.232;2023-07-16T09:01:28;12.30;;;5.80;;
33696;SDS011;20031;43.416;23.232;2023-07-16T09:03:54;11.50;;;5.70;;
33696;SDS011;20031;43.416;23.232;2023-07-16T09:06:19;11.77;;;5.88;;
33696;SDS011;20031;43.416;23.232;2023-07-16T09:08:45;15.00;;;6.25;;
33696;SDS011;20031;43.416;23.232;2023-07-16T09:11:11;12.55;;;5.63;;
33696;SDS011;20031;43.416;23.232;2023-07-16T09:13:43;15.15;;;5.78;;
33696;SDS011;20031;43.416;23.232;2023-07-16T09:16:09;14.07;;;6.00;;
33696;SDS011;20031;43.416;23.232;2023-07-16T09:18:35;17.00;;;6.25;;
33696;SDS011;20031;43.416;23.232;2023-07-16T09:21:00;21.95;;;5.97;;
33696;SDS011;20031;43.416;23.232;2023-07-16T09:23:29;14.13;;;6.07;;
33696;SDS011;20031;43.416;23.232;2023-07-16T09:25:55;12.27;;;6.10;;
33696;SDS011;20031;43.416;23.232;2023-07-16T09:28:21;10.30;;;5.85;;
33696;SDS011;20031;43.416;23.232;2023-07-16T09:30:47;14.10;;;6.38;;
33696;SDS011;20031;43.416;23.232;2023-07-16T09:33:20;12.85;;;6.05;;
33696;SDS011;20031;43.416;23.232;2023-07-16T09:35:48;16.65;;;5.97;;
33696;SDS011;20031;43.416;23.232;2023-07-16T09:38:14;14.68;;;5.70;;
33696;SDS011;20031;43.416;23.232;2023-07-16T09:40:40;15.27;;;6.05;;
33696;SDS011;20031;43.416;23.232;2023-07-16T09:43:09;13.43;;;6.25;;
33696;SDS011;20031;43.416;23.232;2023-07-16T09:45:35;13.45;;;5.80;;
33696;SDS011;20031;43.416;23.232;2023-07-16T09:48:02;17.23;;;6.00;;
33696;SDS011;20031;43.416;23.232;2023-07-16T09:50:28;17.42;;;6.10;;
33696;SDS011;20031;43.416;23.232;2023-07-16T09:52:55;14.38;;;6.00;;
33696;SDS011;20031;43.416;23.232;2023-07-16T09:55:22;16.00;;;6.07;;
33696;SDS011;20031;43.416;23.232;2023-07-16T09:57:48;13.18;;;5.43;;
33696;SDS011;20031;43.416;23.232;2023-07-16T10:00:16;21.40;;;6.40;;
33696;SDS011;20031;43.416;23.232;2023-07-16T10:02:43;14.38;;;6.30;;
33696;SDS011;20031;43.416;23.232;2023-07-16T10:05:23;17.67;;;6.13;;
33696;SDS011;20031;43.416;23.232;2023-07-16T10:07:50;18.52;;;5.95;;
33696;SDS011;20031;43.416;23.232;2023-07-16T10:10:19;17.08;;;5.47;;
33696;SDS011;20031;43.416;23.232;2023-07-16T10:12:55;11.27;;;5.80;;
33696;SDS011;20031;43.416;23.232;2023-07-16T10:15:26;11.68;;;5.93;;
33696;SDS011;20031;43.416;23.232;2023-07-16T10:17:53;18.48;;;5.72;;
33696;SDS011;20031;43.416;23.232;2023-07-16T10:20:27;16.88;;;5.63;;
33696;SDS011;20031;43.416;23.232;2023-07-16T10:22:55;8.80;;;5.75;;
33696;SDS011;20031;43.416;23.232;2023-07-16T10:27:46;14.98;;;6.13;;
33696;SDS011;20031;43.416;23.232;2023-07-16T10:30:13;9.20;;;5.30;;
33696;SDS011;20031;43.416;23.232;2023-07-16T10:32:39;13.05;;;6.05;;
33696;SDS011;20031;43.416;23.232;2023-07-16T10:35:05;11.05;;;5.72;;
33696;SDS011;20031;43.416;23.232;2023-07-16T10:37:34;19.88;;;5.93;;
33696;SDS011;20031;43.416;23.232;2023-07-16T10:40:00;11.93;;;5.88;;
33696;SDS011;20031;43.416;23.232;2023-07-16T10:42:26;14.10;;;5.72;;
33696;SDS011;20031;43.416;23.232;2023-07-16T10:44:59;12.15;;;5.32;;
33696;SDS011;20031;43.416;23.232;2023-07-16T10:47:32;14.77;;;5.90;;
33696;SDS011;20031;43.416;23.232;2023-07-16T10:49:59;17.08;;;6.20;;
33696;SDS011;20031;43.416;23.232;2023-07-16T10:52:25;14.15;;;5.78;;
33696;SDS011;20031;43.416;23.232;2023-07-16T10:54:51;22.35;;;6.10;;
33696;SDS011;20031;43.416;23.232;2023-07-16T10:57:22;13.27;;;5.93;;
33696;SDS011;20031;43.416;23.232;2023-07-16T10:59:48;14.43;;;5.85;;
33696;SDS011;20031;43.416;23.232;2023-07-16T11:02:16;16.80;;;6.10;;
33696;SDS011;20031;43.416;23.232;2023-07-16T11:04:43;14.80;;;6.07;;
33696;SDS011;20031;43.416;23.232;2023-07-16T11:07:10;12.68;;;6.13;;
33696;SDS011;20031;43.416;23.232;2023-07-16T11:09:43;13.18;;;6.18;;
33696;SDS011;20031;43.416;23.232;2023-07-16T11:12:11;15.02;;;6.40;;
33696;SDS011;20031;43.416;23.232;2023-07-16T11:14:38;15.02;;;5.80;;
33696;SDS011;20031;43.416;23.232;2023-07-16T11:17:07;23.75;;;5.85;;
33696;SDS011;20031;43.416;23.232;2023-07-16T11:19:34;12.77;;;5.57;;
33696;SDS011;20031;43.416;23.232;2023-07-16T11:22:01;10.85;;;5.93;;
33696;SDS011;20031;43.416;23.232;2023-07-16T11:24:28;19.20;;;6.13;;
33696;SDS011;20031;43.416;23.232;2023-07-16T11:27:00;13.80;;;5.90;;
33696;SDS011;20031;43.416;23.232;2023-07-16T11:29:26;18.17;;;5.72;;
33696;SDS011;20031;43.416;23.232;2023-07-16T11:31:59;17.50;;;5.82;;
33696;SDS011;20031;43.416;23.232;2023-07-16T11:34:25;15.57;;;5.78;;
33696;SDS011;20031;43.416;23.232;2023-07-16T11:36:50;16.85;;;5.60;;
33696;SDS011;20031;43.416;23.232;2023-07-16T11:39:16;14.77;;;5.88;;
33696;SDS011;20031;43.416;23.232;2023-07-16T11:41:41;10.77;;;5.63;;
33696;SDS011;20031;43.416;23.232;2023-07-16T11:44:07;15.05;;;5.72;;
33696;SDS011;20031;43.416;23.232;2023-07-16T11:46:33;10.27;;;5.65;;
33696;SDS011;20031;43.416;23.232;2023-07-16T11:48:59;16.33;;;5.80;;
33696;SDS011;20031;43.416;23.232;2023-07-16T11:51:25;16.77;;;5.97;;
33696;SDS011;20031;43.416;23.232;2023-07-16T11:53:51;20.15;;;5.85;;
33696;SDS011;20031;43.416;23.232;2023-07-16T11:56:17;15.80;;;5.72;;
33696;SDS011;20031;43.416;23.232;2023-07-16T11:58:42;18.85;;;5.50;;
33696;SDS011;20031;43.416;23.232;2023-07-16T12:01:07;10.27;;;5.88;;
33696;SDS011;20031;43.416;23.232;2023-07-16T12:03:34;19.48;;;5.90;;
33696;SDS011;20031;43.416;23.232;2023-07-16T12:05:59;15.05;;;5.72;;
33696;SDS011;20031;43.416;23.232;2023-07-16T12:08:25;20.45;;;5.82;;
33696;SDS011;20031;43.416;23.232;2023-07-16T12:10:50;17.25;;;6.07;;
33696;SDS011;20031;43.416;23.232;2023-07-16T12:13:16;17.15;;;6.22;;
33696;SDS011;20031;43.416;23.232;2023-07-16T12:15:41;20.58;;;6.35;;
33696;SDS011;20031;43.416;23.232;2023-07-16T12:18:06;21.48;;;6.10;;
33696;SDS011;20031;43.416;23.232;2023-07-16T12:20:33;13.68;;;6.20;;
33696;SDS011;20031;43.416;23.232;2023-07-16T12:22:59;14.32;;;5.80;;
33696;SDS011;20031;43.416;23.232;2023-07-16T12:25:25;17.58;;;6.13;;
33696;SDS011;20031;43.416;23.232;2023-07-16T12:27:50;17.27;;;6.00;;
33696;SDS011;20031;43.416;23.232;2023-07-16T12:30:16;19.60;;;6.47;;
33696;SDS011;20031;43.416;23.232;2023-07-16T12:32:41;22.88;;;6.68;;
33696;SDS011;20031;43.416;23.232;2023-07-16T12:35:07;14.25;;;6.10;;
33696;SDS011;20031;43.416;23.232;2023-07-16T12:37:32;20.05;;;6.18;;
33696;SDS011;20031;43.416;23.232;2023-07-16T12:39:58;14.98;;;6.05;;
33696;SDS011;20031;43.416;23.232;2023-07-16T12:42:23;13.70;;;6.18;;
33696;SDS011;20031;43.416;23.232;2023-07-16T12:44:48;16.52;;;6.05;;
33696;SDS011;20031;43.416;23.232;2023-07-16T12:47:15;16.17;;;6.03;;
33696;SDS011;20031;43.416;23.232;2023-07-16T12:49:41;19.50;;;5.88;;
33696;SDS011;20031;43.416;23.232;2023-07-16T12:52:06;19.42;;;6.22;;
33696;SDS011;20031;43.416;23.232;2023-07-16T12:54:32;20.10;;;5.80;;
33696;SDS011;20031;43.416;23.232;2023-07-16T12:56:58;17.95;;;6.10;;
33696;SDS011;20031;43.416;23.232;2023-07-16T12:59:23;18.15;;;6.03;;
33696;SDS011;20031;43.416;23.232;2023-07-16T13:01:49;20.95;;;6.05;;
33696;SDS011;20031;43.416;23.232;2023-07-16T13:04:15;13.18;;;5.43;;
33696;SDS011;20031;43.416;23.232;2023-07-16T13:06:41;20.80;;;6.15;;
33696;SDS011;20031;43.416;23.232;2023-07-16T13:09:07;20.20;;;6.07;;
33696;SDS011;20031;43.416;23.232;2023-07-16T13:11:33;17.88;;;6.35;;
33696;SDS011;20031;43.416;23.232;2023-07-16T13:13:58;15.25;;;6.07;;
33696;SDS011;20031;43.416;23.232;2023-07-16T13:16:24;12.65;;;5.95;;
33696;SDS011;20031;43.416;23.232;2023-07-16T13:18:49;19.85;;;5.95;;
33696;SDS011;20031;43.416;23.232;2023-07-16T13:21:15;18.48;;;6.15;;
33696;SDS011;20031;43.416;23.232;2023-07-16T13:23:40;19.30;;;6.00;;
33696;SDS011;20031;43.416;23.232;2023-07-16T13:26:05;16.75;;;6.00;;
33696;SDS011;20031;43.416;23.232;2023-07-16T13:28:31;15.48;;;5.60;;
33696;SDS011;20031;43.416;23.232;2023-07-16T13:30:56;18.15;;;6.07;;
33696;SDS011;20031;43.416;23.232;2023-07-16T13:33:22;14.88;;;6.07;;
33696;SDS011;20031;43.416;23.232;2023-07-16T13:35:48;17.52;;;6.25;;
33696;SDS011;20031;43.416;23.232;2023-07-16T13:38:13;20.13;;;6.25;;
33696;SDS011;20031;43.416;23.232;2023-07-16T13:40:39;14.52;;;6.50;;
33696;SDS011;20031;43.416;23.232;2023-07-16T13:43:04;22.50;;;6.57;;
33696;SDS011;20031;43.416;23.232;2023-07-16T13:45:30;12.63;;;5.85;;
33696;SDS011;20031;43.416;23.232;2023-07-16T13:47:58;12.55;;;5.70;;
33696;SDS011;20031;43.416;23.232;2023-07-16T13:50:23;18.67;;;5.90;;
33696;SDS011;20031;43.416;23.232;2023-07-16T13:52:49;15.30;;;6.05;;
33696;SDS011;20031;43.416;23.232;2023-07-16T13:55:14;16.15;;;5.93;;
33696;SDS011;20031;43.416;23.232;2023-07-16T13:57:40;19.55;;;6.00;;
33696;SDS011;20031;43.416;23.232;2023-07-16T14:00:06;16.30;;;5.93;;
33696;SDS011;20031;43.416;23.232;2023-07-16T14:02:34;19.13;;;5.82;;
33696;SDS011;20031;43.416;23.232;2023-07-16T14:05:00;15.30;;;5.75;;
33696;SDS011;20031;43.416;23.232;2023-07-16T14:07:26;20.58;;;6.18;;
33696;SDS011;20031;43.416;23.232;2023-07-16T14:09:51;15.68;;;6.13;;
33696;SDS011;20031;43.416;23.232;2023-07-16T14:12:17;18.35;;;5.47;;
33696;SDS011;20031;43.416;23.232;2023-07-16T14:14:42;16.08;;;6.00;;
33696;SDS011;20031;43.416;23.232;2023-07-16T14:17:08;13.45;;;5.53;;
33696;SDS011;20031;43.416;23.232;2023-07-16T14:19:34;16.13;;;5.68;;
33696;SDS011;20031;43.416;23.232;2023-07-16T14:21:59;16.30;;;5.78;;
33696;SDS011;20031;43.416;23.232;2023-07-16T14:24:25;14.70;;;5.53;;
33696;SDS011;20031;43.416;23.232;2023-07-16T14:26:50;21.67;;;6.00;;